sensor_id;sensor_type;location;lat;lon;timestamp;temperature;humidity
45843;DHT22;31563;51.744;8.252;2022-09-11T00:01:29;23.50;58.70
45843;DHT22;31563;51.744;8.252;2022-09-11T00:03:58;23.50;58.80
45843;DHT22;31563;51.744;8.252;2022-09-11T00:06:27;23.50;58.90
45843;DHT22;31563;51.744;8.252;2022-09-11T00:08:58;23.40;59.40
45843;DHT22;31563;51.744;8.252;2022-09-11T00:11:28;23.40;58.80
45843;DHT22;31563;51.744;8.252;2022-09-11T00:13:58;23.40;59.40
45843;DHT22;31563;51.744;8.252;2022-09-11T00:16:28;23.40;58.90
45843;DHT22;31563;51.744;8.252;2022-09-11T00:18:57;23.40;58.90
45843;DHT22;31563;51.744;8.252;2022-09-11T00:21:26;23.40;59.00
45843;DHT22;31563;51.744;8.252;2022-09-11T00:23:55;23.30;58.90
45843;DHT22;31563;51.744;8.252;2022-09-11T00:26:24;23.30;58.90
45843;DHT22;31563;51.744;8.252;2022-09-11T00:28:53;23.30;58.90
45843;DHT22;31563;51.744;8.252;2022-09-11T00:31:26;23.30;58.90
45843;DHT22;31563;51.744;8.252;2022-09-11T00:33:56;23.20;58.90
45843;DHT22;31563;51.744;8.252;2022-09-11T00:36:27;23.30;58.90
45843;DHT22;31563;51.744;8.252;2022-09-11T00:38:57;23.20;58.90
45843;DHT22;31563;51.744;8.252;2022-09-11T00:41:29;23.20;59.00
45843;DHT22;31563;51.744;8.252;2022-09-11T00:44:00;23.20;59.00
45843;DHT22;31563;51.744;8.252;2022-09-11T00:46:34;23.20;59.00
45843;DHT22;31563;51.744;8.252;2022-09-11T00:49:14;23.20;59.00
45843;DHT22;31563;51.744;8.252;2022-09-11T00:51:44;23.10;59.00
45843;DHT22;31563;51.744;8.252;2022-09-11T00:54:17;23.10;59.00
45843;DHT22;31563;51.744;8.252;2022-09-11T00:56:47;23.10;59.00
45843;DHT22;31563;51.744;8.252;2022-09-11T00:59:16;23.10;59.10
45843;DHT22;31563;51.744;8.252;2022-09-11T01:01:47;23.10;59.10
45843;DHT22;31563;51.744;8.252;2022-09-11T01:04:16;23.00;59.10
45843;DHT22;31563;51.744;8.252;2022-09-11T01:06:44;23.10;59.10
45843;DHT22;31563;51.744;8.252;2022-09-11T01:09:13;23.00;59.10
45843;DHT22;31563;51.744;8.252;2022-09-11T01:11:48;23.00;59.10
45843;DHT22;31563;51.744;8.252;2022-09-11T01:14:33;23.00;59.20
45843;DHT22;31563;51.744;8.252;2022-09-11T01:17:16;23.00;59.10
45843;DHT22;31563;51.744;8.252;2022-09-11T01:20:21;23.00;59.20
45843;DHT22;31563;51.744;8.252;2022-09-11T01:23:22;23.00;59.80
45843;DHT22;31563;51.744;8.252;2022-09-11T01:26:08;22.90;59.10
45843;DHT22;31563;51.744;8.252;2022-09-11T01:28:46;22.90;59.10
45843;DHT22;31563;51.744;8.252;2022-09-11T01:31:20;22.90;59.10
45843;DHT22;31563;51.744;8.252;2022-09-11T01:33:57;22.90;59.10
45843;DHT22;31563;51.744;8.252;2022-09-11T01:36:29;22.90;59.20
45843;DHT22;31563;51.744;8.252;2022-09-11T01:39:01;22.80;59.20
45843;DHT22;31563;51.744;8.252;2022-09-11T01:41:33;22.80;59.20
45843;DHT22;31563;51.744;8.252;2022-09-11T01:44:10;22.80;59.20
45843;DHT22;31563;51.744;8.252;2022-09-11T01:46:43;22.80;59.20
45843;DHT22;31563;51.744;8.252;2022-09-11T01:49:16;22.80;59.20
45843;DHT22;31563;51.744;8.252;2022-09-11T01:51:45;22.80;59.30
45843;DHT22;31563;51.744;8.252;2022-09-11T01:54:17;22.80;59.20
45843;DHT22;31563;51.744;8.252;2022-09-11T01:56:51;22.80;59.20
45843;DHT22;31563;51.744;8.252;2022-09-11T01:59:25;22.80;59.20
45843;DHT22;31563;51.744;8.252;2022-09-11T02:02:01;22.80;59.20
45843;DHT22;31563;51.744;8.252;2022-09-11T02:04:34;22.80;59.20
45843;DHT22;31563;51.744;8.252;2022-09-11T02:07:07;22.70;59.20
45843;DHT22;31563;51.744;8.252;2022-09-11T02:09:40;22.70;59.30
45843;DHT22;31563;51.744;8.252;2022-09-11T02:12:13;22.70;59.20
45843;DHT22;31563;51.744;8.252;2022-09-11T02:14:46;22.70;59.20
45843;DHT22;31563;51.744;8.252;2022-09-11T02:17:21;22.70;59.40
45843;DHT22;31563;51.744;8.252;2022-09-11T02:19:52;22.70;59.50
45843;DHT22;31563;51.744;8.252;2022-09-11T02:22:21;22.80;59.70
45843;DHT22;31563;51.744;8.252;2022-09-11T02:24:50;22.80;59.70
45843;DHT22;31563;51.744;8.252;2022-09-11T02:27:21;22.70;59.70
45843;DHT22;31563;51.744;8.252;2022-09-11T02:29:52;22.70;59.60
45843;DHT22;31563;51.744;8.252;2022-09-11T02:32:22;22.70;59.70
45843;DHT22;31563;51.744;8.252;2022-09-11T02:34:52;22.70;60.40
45843;DHT22;31563;51.744;8.252;2022-09-11T02:37:31;22.60;59.80
45843;DHT22;31563;51.744;8.252;2022-09-11T02:43:07;22.60;59.90
45843;DHT22;31563;51.744;8.252;2022-09-11T02:45:45;22.60;60.00
45843;DHT22;31563;51.744;8.252;2022-09-11T02:48:35;22.50;59.90
45843;DHT22;31563;51.744;8.252;2022-09-11T02:51:14;22.50;59.90
45843;DHT22;31563;51.744;8.252;2022-09-11T02:53:46;22.50;60.00
45843;DHT22;31563;51.744;8.252;2022-09-11T02:56:23;22.50;60.00
45843;DHT22;31563;51.744;8.252;2022-09-11T02:58:54;22.50;60.00
45843;DHT22;31563;51.744;8.252;2022-09-11T03:01:24;22.50;60.00
45843;DHT22;31563;51.744;8.252;2022-09-11T03:03:52;22.50;60.00
45843;DHT22;31563;51.744;8.252;2022-09-11T03:06:21;22.50;60.00
45843;DHT22;31563;51.744;8.252;2022-09-11T03:08:50;22.50;60.00
45843;DHT22;31563;51.744;8.252;2022-09-11T03:11:18;22.40;60.00
45843;DHT22;31563;51.744;8.252;2022-09-11T03:13:46;22.40;60.00
45843;DHT22;31563;51.744;8.252;2022-09-11T03:16:14;22.40;60.00
45843;DHT22;31563;51.744;8.252;2022-09-11T03:18:44;22.40;60.00
45843;DHT22;31563;51.744;8.252;2022-09-11T03:21:12;22.40;59.90
45843;DHT22;31563;51.744;8.252;2022-09-11T03:23:40;22.40;60.00
45843;DHT22;31563;51.744;8.252;2022-09-11T03:26:09;22.40;60.00
45843;DHT22;31563;51.744;8.252;2022-09-11T03:28:37;22.40;60.00
45843;DHT22;31563;51.744;8.252;2022-09-11T03:31:05;22.30;60.00
45843;DHT22;31563;51.744;8.252;2022-09-11T03:33:35;22.30;60.00
45843;DHT22;31563;51.744;8.252;2022-09-11T03:36:05;22.30;60.00
45843;DHT22;31563;51.744;8.252;2022-09-11T03:38:33;22.30;60.00
45843;DHT22;31563;51.744;8.252;2022-09-11T03:41:01;22.30;60.00
45843;DHT22;31563;51.744;8.252;2022-09-11T03:43:29;22.30;60.00
45843;DHT22;31563;51.744;8.252;2022-09-11T03:45:57;22.30;60.00
45843;DHT22;31563;51.744;8.252;2022-09-11T03:48:26;22.30;60.00
45843;DHT22;31563;51.744;8.252;2022-09-11T03:50:55;22.30;60.00
45843;DHT22;31563;51.744;8.252;2022-09-11T03:53:26;22.30;60.00
45843;DHT22;31563;51.744;8.252;2022-09-11T03:55:54;22.30;60.00
45843;DHT22;31563;51.744;8.252;2022-09-11T03:58:22;22.30;60.00
45843;DHT22;31563;51.744;8.252;2022-09-11T04:00:50;22.30;59.80
45843;DHT22;31563;51.744;8.252;2022-09-11T04:03:18;22.30;59.90
45843;DHT22;31563;51.744;8.252;2022-09-11T04:05:56;22.30;59.80
45843;DHT22;31563;51.744;8.252;2022-09-11T04:08:26;22.30;59.80
45843;DHT22;31563;51.744;8.252;2022-09-11T04:10:57;22.30;59.80
45843;DHT22;31563;51.744;8.252;2022-09-11T04:13:26;22.30;59.70
45843;DHT22;31563;51.744;8.252;2022-09-11T04:15:58;22.30;59.70
45843;DHT22;31563;51.744;8.252;2022-09-11T04:18:27;22.30;59.70
45843;DHT22;31563;51.744;8.252;2022-09-11T04:20:55;22.30;59.60
45843;DHT22;31563;51.744;8.252;2022-09-11T04:23:23;22.30;59.60
45843;DHT22;31563;51.744;8.252;2022-09-11T04:25:53;22.30;59.60
45843;DHT22;31563;51.744;8.252;2022-09-11T04:28:21;22.20;59.50
45843;DHT22;31563;51.744;8.252;2022-09-11T04:30:49;22.30;59.60
45843;DHT22;31563;51.744;8.252;2022-09-11T04:33:17;22.30;59.60
45843;DHT22;31563;51.744;8.252;2022-09-11T04:35:45;22.30;59.60
45843;DHT22;31563;51.744;8.252;2022-09-11T04:38:13;22.30;59.50
45843;DHT22;31563;51.744;8.252;2022-09-11T04:40:41;22.30;59.50
45843;DHT22;31563;51.744;8.252;2022-09-11T04:43:11;22.30;59.50
45843;DHT22;31563;51.744;8.252;2022-09-11T04:45:39;22.30;59.50
45843;DHT22;31563;51.744;8.252;2022-09-11T04:48:07;22.20;59.40
45843;DHT22;31563;51.744;8.252;2022-09-11T04:50:35;22.20;59.40
45843;DHT22;31563;51.744;8.252;2022-09-11T04:53:03;22.30;59.50
45843;DHT22;31563;51.744;8.252;2022-09-11T04:55:32;22.20;59.40
45843;DHT22;31563;51.744;8.252;2022-09-11T04:58:00;22.20;59.30
45843;DHT22;31563;51.744;8.252;2022-09-11T05:00:30;22.30;59.40
45843;DHT22;31563;51.744;8.252;2022-09-11T05:02:59;22.30;59.40
45843;DHT22;31563;51.744;8.252;2022-09-11T05:05:27;22.20;59.30
45843;DHT22;31563;51.744;8.252;2022-09-11T05:07:55;22.30;59.40
45843;DHT22;31563;51.744;8.252;2022-09-11T05:10:23;22.30;59.30
45843;DHT22;31563;51.744;8.252;2022-09-11T05:12:52;22.30;59.30
45843;DHT22;31563;51.744;8.252;2022-09-11T05:15:21;22.30;59.30
45843;DHT22;31563;51.744;8.252;2022-09-11T05:17:50;22.20;59.30
45843;DHT22;31563;51.744;8.252;2022-09-11T05:20:18;22.30;59.30
45843;DHT22;31563;51.744;8.252;2022-09-11T05:22:46;22.30;59.30
45843;DHT22;31563;51.744;8.252;2022-09-11T05:25:15;22.30;59.30
45843;DHT22;31563;51.744;8.252;2022-09-11T05:27:44;22.30;59.20
45843;DHT22;31563;51.744;8.252;2022-09-11T05:30:12;22.30;59.20
45843;DHT22;31563;51.744;8.252;2022-09-11T05:32:40;22.30;59.30
45843;DHT22;31563;51.744;8.252;2022-09-11T05:35:10;22.30;59.20
45843;DHT22;31563;51.744;8.252;2022-09-11T05:37:38;22.30;59.20
45843;DHT22;31563;51.744;8.252;2022-09-11T05:40:07;22.30;59.20
45843;DHT22;31563;51.744;8.252;2022-09-11T05:42:36;22.30;59.10
45843;DHT22;31563;51.744;8.252;2022-09-11T05:45:05;22.30;59.00
45843;DHT22;31563;51.744;8.252;2022-09-11T05:47:33;22.30;59.10
45843;DHT22;31563;51.744;8.252;2022-09-11T05:50:02;22.30;59.10
45843;DHT22;31563;51.744;8.252;2022-09-11T05:52:31;22.30;59.00
45843;DHT22;31563;51.744;8.252;2022-09-11T05:55:00;22.40;59.10
45843;DHT22;31563;51.744;8.252;2022-09-11T05:57:28;22.30;59.10
45843;DHT22;31563;51.744;8.252;2022-09-11T05:59:56;22.40;59.00
45843;DHT22;31563;51.744;8.252;2022-09-11T06:02:26;22.40;59.10
45843;DHT22;31563;51.744;8.252;2022-09-11T06:04:54;22.40;58.90
45843;DHT22;31563;51.744;8.252;2022-09-11T06:07:22;22.40;58.90
45843;DHT22;31563;51.744;8.252;2022-09-11T06:09:53;22.40;58.90
45843;DHT22;31563;51.744;8.252;2022-09-11T06:12:28;22.50;58.90
45843;DHT22;31563;51.744;8.252;2022-09-11T06:14:57;22.50;58.80
45843;DHT22;31563;51.744;8.252;2022-09-11T06:17:25;22.50;58.80
45843;DHT22;31563;51.744;8.252;2022-09-11T06:19:54;22.60;60.20
45843;DHT22;31563;51.744;8.252;2022-09-11T06:22:22;22.70;61.00
45843;DHT22;31563;51.744;8.252;2022-09-11T06:24:50;22.90;61.20
45843;DHT22;31563;51.744;8.252;2022-09-11T06:27:19;23.00;61.20
45843;DHT22;31563;51.744;8.252;2022-09-11T06:29:47;23.10;61.20
45843;DHT22;31563;51.744;8.252;2022-09-11T06:32:16;23.20;61.20
45843;DHT22;31563;51.744;8.252;2022-09-11T06:34:45;23.20;61.10
45843;DHT22;31563;51.744;8.252;2022-09-11T06:37:13;23.20;60.60
45843;DHT22;31563;51.744;8.252;2022-09-11T06:39:41;23.20;60.30
45843;DHT22;31563;51.744;8.252;2022-09-11T06:42:09;23.20;60.20
45843;DHT22;31563;51.744;8.252;2022-09-11T06:44:39;23.20;60.10
45843;DHT22;31563;51.744;8.252;2022-09-11T06:47:07;23.10;60.20
45843;DHT22;31563;51.744;8.252;2022-09-11T06:49:35;23.10;60.30
45843;DHT22;31563;51.744;8.252;2022-09-11T06:52:03;23.00;60.30
45843;DHT22;31563;51.744;8.252;2022-09-11T06:54:32;23.10;60.60
45843;DHT22;31563;51.744;8.252;2022-09-11T06:57:00;23.10;60.60
45843;DHT22;31563;51.744;8.252;2022-09-11T06:59:28;23.10;60.50
45843;DHT22;31563;51.744;8.252;2022-09-11T07:01:58;23.20;60.50
45843;DHT22;31563;51.744;8.252;2022-09-11T07:04:26;23.20;60.40
45843;DHT22;31563;51.744;8.252;2022-09-11T07:06:54;23.20;59.20
45843;DHT22;31563;51.744;8.252;2022-09-11T07:09:22;23.20;60.10
45843;DHT22;31563;51.744;8.252;2022-09-11T07:11:50;23.30;60.40
45843;DHT22;31563;51.744;8.252;2022-09-11T07:14:19;23.40;60.30
45843;DHT22;31563;51.744;8.252;2022-09-11T07:16:49;23.40;60.10
45843;DHT22;31563;51.744;8.252;2022-09-11T07:19:23;23.40;60.10
45843;DHT22;31563;51.744;8.252;2022-09-11T07:21:51;23.50;60.00
45843;DHT22;31563;51.744;8.252;2022-09-11T07:24:19;23.50;60.00
45843;DHT22;31563;51.744;8.252;2022-09-11T07:26:47;23.50;59.80
45843;DHT22;31563;51.744;8.252;2022-09-11T07:29:16;23.50;59.70
45843;DHT22;31563;51.744;8.252;2022-09-11T07:31:44;23.50;59.60
45843;DHT22;31563;51.744;8.252;2022-09-11T07:34:13;23.50;59.40
45843;DHT22;31563;51.744;8.252;2022-09-11T07:36:42;23.50;59.30
45843;DHT22;31563;51.744;8.252;2022-09-11T07:39:11;23.50;58.80
45843;DHT22;31563;51.744;8.252;2022-09-11T07:41:39;23.50;58.60
45843;DHT22;31563;51.744;8.252;2022-09-11T07:44:07;23.40;57.90
45843;DHT22;31563;51.744;8.252;2022-09-11T07:46:35;23.40;57.80
45843;DHT22;31563;51.744;8.252;2022-09-11T07:49:07;23.30;57.70
45843;DHT22;31563;51.744;8.252;2022-09-11T07:51:36;23.20;57.80
45843;DHT22;31563;51.744;8.252;2022-09-11T07:54:07;23.20;57.50
45843;DHT22;31563;51.744;8.252;2022-09-11T07:56:35;23.20;57.30
45843;DHT22;31563;51.744;8.252;2022-09-11T07:59:06;23.20;57.20
45843;DHT22;31563;51.744;8.252;2022-09-11T08:01:35;23.10;57.20
45843;DHT22;31563;51.744;8.252;2022-09-11T08:04:05;23.20;58.10
45843;DHT22;31563;51.744;8.252;2022-09-11T08:06:35;23.40;58.40
45843;DHT22;31563;51.744;8.252;2022-09-11T08:09:07;23.50;58.00
45843;DHT22;31563;51.744;8.252;2022-09-11T08:11:36;23.50;57.90
45843;DHT22;31563;51.744;8.252;2022-09-11T08:14:05;23.60;57.50
45843;DHT22;31563;51.744;8.252;2022-09-11T08:16:33;23.70;57.60
45843;DHT22;31563;51.744;8.252;2022-09-11T08:19:03;23.70;57.20
45843;DHT22;31563;51.744;8.252;2022-09-11T08:21:32;23.70;57.00
45843;DHT22;31563;51.744;8.252;2022-09-11T08:24:00;23.70;56.70
45843;DHT22;31563;51.744;8.252;2022-09-11T08:26:31;23.70;56.70
45843;DHT22;31563;51.744;8.252;2022-09-11T08:28:59;23.70;56.70
45843;DHT22;31563;51.744;8.252;2022-09-11T08:31:27;23.70;56.70
45843;DHT22;31563;51.744;8.252;2022-09-11T08:33:56;23.80;56.70
45843;DHT22;31563;51.744;8.252;2022-09-11T08:36:24;23.80;56.50
45843;DHT22;31563;51.744;8.252;2022-09-11T08:38:53;23.80;56.70
45843;DHT22;31563;51.744;8.252;2022-09-11T08:41:31;23.80;56.50
45843;DHT22;31563;51.744;8.252;2022-09-11T08:44:05;23.90;56.40
45843;DHT22;31563;51.744;8.252;2022-09-11T08:46:42;24.00;56.30
45843;DHT22;31563;51.744;8.252;2022-09-11T08:49:18;24.00;56.10
45843;DHT22;31563;51.744;8.252;2022-09-11T08:51:48;24.00;56.00
45843;DHT22;31563;51.744;8.252;2022-09-11T08:54:22;24.00;56.00
45843;DHT22;31563;51.744;8.252;2022-09-11T08:57:03;24.00;56.00
45843;DHT22;31563;51.744;8.252;2022-09-11T08:59:44;24.10;56.00
45843;DHT22;31563;51.744;8.252;2022-09-11T09:02:30;24.10;56.00
45843;DHT22;31563;51.744;8.252;2022-09-11T09:05:17;24.10;55.90
45843;DHT22;31563;51.744;8.252;2022-09-11T09:07:58;24.10;56.50
45843;DHT22;31563;51.744;8.252;2022-09-11T09:10:38;24.10;55.90
45843;DHT22;31563;51.744;8.252;2022-09-11T09:13:24;24.10;55.80
45843;DHT22;31563;51.744;8.252;2022-09-11T09:16:04;24.10;55.70
45843;DHT22;31563;51.744;8.252;2022-09-11T09:18:39;24.10;55.70
45843;DHT22;31563;51.744;8.252;2022-09-11T09:21:11;24.10;55.70
45843;DHT22;31563;51.744;8.252;2022-09-11T09:23:43;24.10;55.80
45843;DHT22;31563;51.744;8.252;2022-09-11T09:26:16;24.10;55.70
45843;DHT22;31563;51.744;8.252;2022-09-11T09:28:47;24.10;55.80
45843;DHT22;31563;51.744;8.252;2022-09-11T09:31:18;24.00;55.80
45843;DHT22;31563;51.744;8.252;2022-09-11T09:33:49;24.00;56.10
45843;DHT22;31563;51.744;8.252;2022-09-11T09:36:21;23.90;55.90
45843;DHT22;31563;51.744;8.252;2022-09-11T09:38:51;23.90;56.70
45843;DHT22;31563;51.744;8.252;2022-09-11T09:41:52;23.80;56.20
45843;DHT22;31563;51.744;8.252;2022-09-11T09:44:36;23.70;56.30
45843;DHT22;31563;51.744;8.252;2022-09-11T09:47:09;23.60;56.50
45843;DHT22;31563;51.744;8.252;2022-09-11T09:49:38;23.60;56.60
45843;DHT22;31563;51.744;8.252;2022-09-11T09:52:15;23.60;57.00
45843;DHT22;31563;51.744;8.252;2022-09-11T09:54:51;23.70;57.00
45843;DHT22;31563;51.744;8.252;2022-09-11T09:57:22;23.80;56.90
45843;DHT22;31563;51.744;8.252;2022-09-11T09:59:59;23.90;57.20
45843;DHT22;31563;51.744;8.252;2022-09-11T10:02:39;24.00;57.40
45843;DHT22;31563;51.744;8.252;2022-09-11T10:05:19;24.20;57.30
45843;DHT22;31563;51.744;8.252;2022-09-11T10:07:51;24.40;57.20
45843;DHT22;31563;51.744;8.252;2022-09-11T10:10:21;24.50;56.90
45843;DHT22;31563;51.744;8.252;2022-09-11T10:12:50;24.60;56.60
45843;DHT22;31563;51.744;8.252;2022-09-11T10:15:40;24.70;56.50
45843;DHT22;31563;51.744;8.252;2022-09-11T10:18:21;24.70;56.20
45843;DHT22;31563;51.744;8.252;2022-09-11T10:20:50;24.70;56.00
45843;DHT22;31563;51.744;8.252;2022-09-11T10:23:23;24.70;55.70
45843;DHT22;31563;51.744;8.252;2022-09-11T10:25:51;24.70;55.80
45843;DHT22;31563;51.744;8.252;2022-09-11T10:28:26;24.60;55.70
45843;DHT22;31563;51.744;8.252;2022-09-11T10:30:59;24.50;55.70
45843;DHT22;31563;51.744;8.252;2022-09-11T10:33:31;24.50;55.70
45843;DHT22;31563;51.744;8.252;2022-09-11T10:36:03;24.40;55.80
45843;DHT22;31563;51.744;8.252;2022-09-11T10:38:33;24.40;55.90
45843;DHT22;31563;51.744;8.252;2022-09-11T10:41:13;24.40;56.10
45843;DHT22;31563;51.744;8.252;2022-09-11T10:43:47;24.40;56.30
45843;DHT22;31563;51.744;8.252;2022-09-11T10:46:29;24.50;56.30
45843;DHT22;31563;51.744;8.252;2022-09-11T10:49:14;24.70;56.30
45843;DHT22;31563;51.744;8.252;2022-09-11T10:51:57;24.80;56.10
45843;DHT22;31563;51.744;8.252;2022-09-11T10:54:54;25.00;55.90
45843;DHT22;31563;51.744;8.252;2022-09-11T10:57:28;25.20;55.70
45843;DHT22;31563;51.744;8.252;2022-09-11T11:00:04;25.40;55.30
45843;DHT22;31563;51.744;8.252;2022-09-11T11:02:38;25.50;54.80
45843;DHT22;31563;51.744;8.252;2022-09-11T11:05:15;25.50;54.40
45843;DHT22;31563;51.744;8.252;2022-09-11T11:08:07;25.50;54.20
45843;DHT22;31563;51.744;8.252;2022-09-11T11:10:54;25.40;54.10
45843;DHT22;31563;51.744;8.252;2022-09-11T11:13:51;25.40;54.30
45843;DHT22;31563;51.744;8.252;2022-09-11T11:16:28;25.60;54.60
45843;DHT22;31563;51.744;8.252;2022-09-11T11:19:15;25.90;54.50
45843;DHT22;31563;51.744;8.252;2022-09-11T11:21:56;26.10;54.10
45843;DHT22;31563;51.744;8.252;2022-09-11T11:24:38;26.30;53.40
45843;DHT22;31563;51.744;8.252;2022-09-11T11:27:25;26.40;53.30
45843;DHT22;31563;51.744;8.252;2022-09-11T11:30:06;26.50;53.20
45843;DHT22;31563;51.744;8.252;2022-09-11T11:32:45;26.60;52.80
45843;DHT22;31563;51.744;8.252;2022-09-11T11:35:21;26.70;52.70
45843;DHT22;31563;51.744;8.252;2022-09-11T11:37:53;26.90;52.30
45843;DHT22;31563;51.744;8.252;2022-09-11T11:40:26;26.90;52.00
45843;DHT22;31563;51.744;8.252;2022-09-11T11:42:58;27.00;51.70
45843;DHT22;31563;51.744;8.252;2022-09-11T11:45:30;26.90;51.80
45843;DHT22;31563;51.744;8.252;2022-09-11T11:48:05;26.90;51.70
45843;DHT22;31563;51.744;8.252;2022-09-11T11:50:41;27.00;51.90
45843;DHT22;31563;51.744;8.252;2022-09-11T11:53:15;27.20;52.40
45843;DHT22;31563;51.744;8.252;2022-09-11T11:55:53;27.60;52.30
45843;DHT22;31563;51.744;8.252;2022-09-11T11:58:36;28.10;51.20
45843;DHT22;31563;51.744;8.252;2022-09-11T12:01:11;28.20;50.20
45843;DHT22;31563;51.744;8.252;2022-09-11T12:03:45;28.30;50.00
45843;DHT22;31563;51.744;8.252;2022-09-11T12:06:16;28.30;50.10
45843;DHT22;31563;51.744;8.252;2022-09-11T12:08:44;28.20;50.00
45843;DHT22;31563;51.744;8.252;2022-09-11T12:11:15;28.10;49.80
45843;DHT22;31563;51.744;8.252;2022-09-11T12:13:46;28.00;49.10
45843;DHT22;31563;51.744;8.252;2022-09-11T12:16:18;27.90;48.30
45843;DHT22;31563;51.744;8.252;2022-09-11T12:19:01;27.60;47.50
45843;DHT22;31563;51.744;8.252;2022-09-11T12:21:40;27.40;47.80
45843;DHT22;31563;51.744;8.252;2022-09-11T12:24:15;27.10;48.00
45843;DHT22;31563;51.744;8.252;2022-09-11T12:26:44;27.80;51.30
45843;DHT22;31563;51.744;8.252;2022-09-11T12:32:41;30.30;47.80
45843;DHT22;31563;51.744;8.252;2022-09-11T12:35:16;31.30;45.80
45843;DHT22;31563;51.744;8.252;2022-09-11T12:37:52;32.00;44.10
45843;DHT22;31563;51.744;8.252;2022-09-11T12:40:26;32.50;43.50
45843;DHT22;31563;51.744;8.252;2022-09-11T12:43:15;32.80;41.20
45843;DHT22;31563;51.744;8.252;2022-09-11T12:45:44;33.00;41.00
45843;DHT22;31563;51.744;8.252;2022-09-11T12:48:15;33.00;39.70
45843;DHT22;31563;51.744;8.252;2022-09-11T12:50:49;33.20;40.70
45843;DHT22;31563;51.744;8.252;2022-09-11T12:53:24;33.60;40.60
45843;DHT22;31563;51.744;8.252;2022-09-11T12:55:56;34.00;39.80
45843;DHT22;31563;51.744;8.252;2022-09-11T12:58:29;34.30;39.70
45843;DHT22;31563;51.744;8.252;2022-09-11T13:01:03;34.40;39.10
45843;DHT22;31563;51.744;8.252;2022-09-11T13:03:33;34.70;39.00
45843;DHT22;31563;51.744;8.252;2022-09-11T13:06:05;34.70;37.40
45843;DHT22;31563;51.744;8.252;2022-09-11T13:08:44;34.70;37.60
45843;DHT22;31563;51.744;8.252;2022-09-11T13:11:38;34.60;36.30
45843;DHT22;31563;51.744;8.252;2022-09-11T13:14:47;33.70;36.10
45843;DHT22;31563;51.744;8.252;2022-09-11T13:17:21;32.80;36.70
45843;DHT22;31563;51.744;8.252;2022-09-11T13:19:52;32.00;37.70
45843;DHT22;31563;51.744;8.252;2022-09-11T13:22:25;31.90;38.50
45843;DHT22;31563;51.744;8.252;2022-09-11T13:25:12;31.80;38.40
45843;DHT22;31563;51.744;8.252;2022-09-11T13:27:44;31.70;38.30
45843;DHT22;31563;51.744;8.252;2022-09-11T13:30:15;31.40;39.20
45843;DHT22;31563;51.744;8.252;2022-09-11T13:32:44;31.20;39.50
45843;DHT22;31563;51.744;8.252;2022-09-11T13:35:26;31.40;40.10
45843;DHT22;31563;51.744;8.252;2022-09-11T13:37:58;31.70;40.40
45843;DHT22;31563;51.744;8.252;2022-09-11T13:40:33;32.10;40.20
45843;DHT22;31563;51.744;8.252;2022-09-11T13:43:05;32.40;40.00
45843;DHT22;31563;51.744;8.252;2022-09-11T13:45:33;32.70;39.70
45843;DHT22;31563;51.744;8.252;2022-09-11T13:48:11;33.00;39.80
45843;DHT22;31563;51.744;8.252;2022-09-11T13:50:40;33.40;39.90
45843;DHT22;31563;51.744;8.252;2022-09-11T13:53:08;33.70;39.50
45843;DHT22;31563;51.744;8.252;2022-09-11T13:55:38;34.10;39.40
45843;DHT22;31563;51.744;8.252;2022-09-11T13:58:21;34.60;38.90
45843;DHT22;31563;51.744;8.252;2022-09-11T14:00:50;35.10;38.40
45843;DHT22;31563;51.744;8.252;2022-09-11T14:03:21;35.60;38.20
45843;DHT22;31563;51.744;8.252;2022-09-11T14:05:55;36.10;37.20
45843;DHT22;31563;51.744;8.252;2022-09-11T14:08:29;36.60;36.70
45843;DHT22;31563;51.744;8.252;2022-09-11T14:11:01;36.80;35.90
45843;DHT22;31563;51.744;8.252;2022-09-11T14:13:40;37.20;35.90
45843;DHT22;31563;51.744;8.252;2022-09-11T14:16:19;37.50;35.60
45843;DHT22;31563;51.744;8.252;2022-09-11T14:18:50;37.70;35.60
45843;DHT22;31563;51.744;8.252;2022-09-11T14:21:24;37.90;35.20
45843;DHT22;31563;51.744;8.252;2022-09-11T14:23:54;38.10;34.80
45843;DHT22;31563;51.744;8.252;2022-09-11T14:26:38;38.20;34.50
45843;DHT22;31563;51.744;8.252;2022-09-11T14:29:21;38.40;34.50
45843;DHT22;31563;51.744;8.252;2022-09-11T14:31:50;38.50;34.00
45843;DHT22;31563;51.744;8.252;2022-09-11T14:34:20;38.70;34.20
45843;DHT22;31563;51.744;8.252;2022-09-11T14:36:52;38.70;33.80
45843;DHT22;31563;51.744;8.252;2022-09-11T14:39:31;38.90;34.00
45843;DHT22;31563;51.744;8.252;2022-09-11T14:42:03;39.00;33.80
45843;DHT22;31563;51.744;8.252;2022-09-11T14:44:34;39.10;34.40
45843;DHT22;31563;51.744;8.252;2022-09-11T14:47:03;39.20;33.60
45843;DHT22;31563;51.744;8.252;2022-09-11T14:49:32;39.20;33.60
45843;DHT22;31563;51.744;8.252;2022-09-11T14:52:00;39.20;33.70
45843;DHT22;31563;51.744;8.252;2022-09-11T14:54:29;39.20;33.70
45843;DHT22;31563;51.744;8.252;2022-09-11T14:56:58;39.20;33.70
45843;DHT22;31563;51.744;8.252;2022-09-11T14:59:27;39.20;33.60
45843;DHT22;31563;51.744;8.252;2022-09-11T15:01:56;39.30;33.70
45843;DHT22;31563;51.744;8.252;2022-09-11T15:04:25;39.20;33.80
45843;DHT22;31563;51.744;8.252;2022-09-11T15:06:55;39.20;33.80
45843;DHT22;31563;51.744;8.252;2022-09-11T15:09:25;39.30;33.80
45843;DHT22;31563;51.744;8.252;2022-09-11T15:11:53;39.40;33.90
45843;DHT22;31563;51.744;8.252;2022-09-11T15:14:22;39.40;33.70
45843;DHT22;31563;51.744;8.252;2022-09-11T15:17:13;39.40;33.80
45843;DHT22;31563;51.744;8.252;2022-09-11T15:19:41;39.40;33.90
45843;DHT22;31563;51.744;8.252;2022-09-11T15:22:12;39.40;33.90
45843;DHT22;31563;51.744;8.252;2022-09-11T15:24:40;39.30;34.00
45843;DHT22;31563;51.744;8.252;2022-09-11T15:27:08;39.40;34.10
45843;DHT22;31563;51.744;8.252;2022-09-11T15:29:37;39.30;34.00
45843;DHT22;31563;51.744;8.252;2022-09-11T15:32:05;39.30;34.10
45843;DHT22;31563;51.744;8.252;2022-09-11T15:34:37;39.20;34.20
45843;DHT22;31563;51.744;8.252;2022-09-11T15:37:08;39.20;34.30
45843;DHT22;31563;51.744;8.252;2022-09-11T15:39:37;39.10;34.50
45843;DHT22;31563;51.744;8.252;2022-09-11T15:42:06;39.00;34.50
45843;DHT22;31563;51.744;8.252;2022-09-11T15:44:35;39.00;34.60
45843;DHT22;31563;51.744;8.252;2022-09-11T15:47:04;39.00;34.70
45843;DHT22;31563;51.744;8.252;2022-09-11T15:49:39;38.90;34.70
45843;DHT22;31563;51.744;8.252;2022-09-11T15:52:08;38.80;34.90
45843;DHT22;31563;51.744;8.252;2022-09-11T15:54:36;38.60;34.90
45843;DHT22;31563;51.744;8.252;2022-09-11T15:57:04;38.60;35.00
45843;DHT22;31563;51.744;8.252;2022-09-11T15:59:33;38.50;35.10
45843;DHT22;31563;51.744;8.252;2022-09-11T16:02:01;38.30;35.30
45843;DHT22;31563;51.744;8.252;2022-09-11T16:04:29;38.20;35.50
45843;DHT22;31563;51.744;8.252;2022-09-11T16:07:00;38.00;35.50
45843;DHT22;31563;51.744;8.252;2022-09-11T16:09:30;37.70;35.80